createdAt,value
2019-05-13T00:00:09.392Z,1.90
2019-05-13T00:01:09.383Z,1.90
2019-05-13T00:02:09.366Z,1.50
2019-05-13T00:03:09.356Z,1.80
2019-05-13T00:04:09.356Z,1.70
2019-05-13T00:05:09.343Z,1.90
2019-05-13T00:06:09.331Z,1.90
2019-05-13T00:07:09.318Z,1.70
2019-05-13T00:08:09.302Z,2.00
2019-05-13T00:09:09.291Z,1.70
2019-05-13T00:10:09.285Z,1.90
2019-05-13T00:11:09.269Z,2.00
2019-05-13T00:12:09.263Z,1.80
2019-05-13T00:13:09.251Z,1.80
2019-05-13T00:14:09.238Z,1.80
2019-05-13T00:15:09.245Z,2.00
2019-05-13T00:16:09.220Z,1.70
2019-05-13T00:17:09.212Z,1.70
2019-05-13T00:18:09.194Z,1.80
2019-05-13T00:19:09.188Z,1.80
2019-05-13T00:20:09.183Z,1.90
2019-05-13T00:21:09.162Z,1.70
2019-05-13T00:22:09.153Z,1.60
2019-05-13T00:23:09.144Z,1.80
2019-05-13T00:24:09.162Z,1.90
2019-05-13T00:25:09.130Z,1.60
2019-05-13T00:26:09.111Z,1.80
2019-05-13T00:27:09.097Z,1.60
2019-05-13T00:28:09.086Z,1.40
2019-05-13T00:29:09.098Z,1.60
2019-05-13T00:30:09.074Z,1.70
2019-05-13T00:31:09.068Z,1.80
2019-05-13T00:32:09.042Z,2.00
2019-05-13T00:33:09.031Z,1.70
2019-05-13T00:34:09.024Z,1.80
2019-05-13T00:35:09.042Z,1.50
2019-05-13T00:36:08.999Z,2.00
2019-05-13T00:37:11.712Z,2.20
2019-05-13T00:38:09.016Z,1.80
2019-05-13T00:39:08.971Z,2.00
2019-05-13T00:40:08.968Z,1.80
2019-05-13T00:41:08.948Z,1.60
2019-05-13T00:42:08.941Z,1.90
2019-05-13T00:43:08.933Z,1.70
2019-05-13T00:44:08.914Z,1.80
2019-05-13T00:45:08.933Z,1.70
2019-05-13T00:46:08.910Z,1.90
2019-05-13T00:47:08.887Z,1.60
2019-05-13T00:48:08.870Z,1.90
2019-05-13T00:49:08.859Z,1.90
2019-05-13T00:50:08.849Z,1.70
2019-05-13T00:51:08.847Z,1.60
2019-05-13T00:52:08.831Z,1.90
2019-05-13T00:53:08.823Z,1.60
2019-05-13T00:54:08.806Z,1.90
2019-05-13T00:55:10.069Z,1.90
2019-05-13T00:56:08.797Z,1.60
2019-05-13T00:57:08.775Z,2.00
2019-05-13T00:58:08.766Z,1.40
2019-05-13T00:59:08.784Z,1.60
2019-05-13T01:00:08.745Z,1.60
2019-05-13T01:01:08.735Z,1.70
2019-05-13T01:02:08.725Z,1.90
2019-05-13T01:03:08.746Z,2.00
2019-05-13T01:04:08.708Z,1.60
2019-05-13T01:05:08.690Z,1.90
2019-05-13T01:06:08.683Z,1.70
2019-05-13T01:07:22.888Z,1.90
2019-05-13T01:08:09.774Z,1.40
2019-05-13T01:09:08.650Z,1.50
2019-05-13T01:10:08.641Z,1.70
2019-05-13T01:11:08.628Z,1.60
2019-05-13T01:12:08.613Z,1.50
2019-05-13T01:13:08.603Z,1.90
2019-05-13T01:14:08.604Z,1.50
2019-05-13T01:15:08.591Z,1.60
2019-05-13T01:16:08.588Z,1.70
2019-05-13T01:17:08.560Z,2.10
2019-05-13T01:18:08.561Z,1.60
2019-05-13T01:19:08.539Z,1.50
2019-05-13T01:20:08.563Z,1.80
2019-05-13T01:21:08.601Z,1.40
2019-05-13T01:22:08.505Z,1.60
2019-05-13T01:23:08.495Z,2.00
2019-05-13T01:24:08.486Z,1.60
2019-05-13T01:25:08.477Z,1.80
2019-05-13T01:26:08.472Z,1.70
2019-05-13T01:27:08.452Z,1.80
2019-05-13T01:28:08.462Z,1.80
2019-05-13T01:29:08.431Z,1.50
2019-05-13T01:30:08.419Z,1.90
2019-05-13T01:31:08.419Z,2.10
2019-05-13T01:32:08.401Z,1.60
2019-05-13T01:33:08.387Z,1.70
2019-05-13T01:34:08.378Z,1.60
2019-05-13T01:35:08.393Z,1.40
2019-05-13T01:36:08.378Z,1.70
2019-05-13T01:37:08.355Z,1.80
2019-05-13T01:38:08.340Z,1.50
2019-05-13T01:39:08.323Z,1.40
2019-05-13T01:40:08.319Z,1.70
2019-05-13T01:41:08.310Z,2.10
2019-05-13T01:42:08.295Z,1.60
2019-05-13T01:43:08.284Z,1.90
2019-05-13T01:44:08.268Z,1.40
2019-05-13T01:45:08.258Z,1.70
2019-05-13T01:46:08.257Z,1.90
2019-05-13T01:47:08.239Z,1.50
2019-05-13T01:48:08.352Z,1.70
2019-05-13T01:49:08.215Z,1.80
2019-05-13T01:50:08.206Z,1.60
2019-05-13T01:51:08.202Z,1.90
2019-05-13T01:52:08.182Z,1.40
2019-05-13T01:53:08.178Z,1.70
2019-05-13T01:54:08.161Z,1.70
2019-05-13T01:55:08.153Z,1.50
2019-05-13T01:56:08.173Z,1.80
2019-05-13T01:57:08.131Z,1.60
2019-05-13T01:58:08.116Z,1.60
2019-05-13T01:59:08.111Z,1.40
2019-05-13T02:00:08.102Z,1.70
2019-05-13T02:01:08.085Z,1.90
2019-05-13T02:02:08.078Z,1.70
2019-05-13T02:03:08.066Z,1.70
2019-05-13T02:04:08.058Z,1.60
2019-05-13T02:05:08.049Z,1.60
2019-05-13T02:06:08.032Z,1.60
2019-05-13T02:07:08.025Z,1.50
2019-05-13T02:08:08.011Z,1.90
2019-05-13T02:09:08.002Z,1.70
2019-05-13T02:10:07.989Z,2.10
2019-05-13T02:11:08.012Z,1.70
2019-05-13T02:12:07.978Z,1.50
2019-05-13T02:13:07.957Z,1.70
2019-05-13T02:14:07.946Z,1.60
2019-05-13T02:15:07.933Z,1.50
2019-05-13T02:16:07.920Z,1.70
2019-05-13T02:17:07.917Z,1.90
2019-05-13T02:18:07.946Z,1.60
2019-05-13T02:19:07.899Z,1.60
2019-05-13T02:20:07.877Z,1.90
2019-05-13T02:21:07.881Z,1.90
2019-05-13T02:22:07.861Z,1.70
2019-05-13T02:23:07.844Z,1.70
2019-05-13T02:24:07.837Z,2.10
2019-05-13T02:25:07.947Z,1.90
2019-05-13T02:26:07.825Z,2.20
2019-05-13T02:27:07.818Z,1.80
2019-05-13T02:28:10.310Z,2.00
2019-05-13T02:29:07.787Z,1.90
2019-05-13T02:30:07.785Z,2.10
2019-05-13T02:31:07.761Z,2.00
2019-05-13T02:32:07.788Z,1.60
2019-05-13T02:33:07.742Z,1.80
2019-05-13T02:34:07.732Z,1.90
2019-05-13T02:35:07.724Z,1.80
2019-05-13T02:36:07.721Z,1.90
2019-05-13T02:37:07.703Z,1.80
2019-05-13T02:38:19.837Z,1.60
2019-05-13T02:39:08.675Z,1.80
2019-05-13T02:40:07.665Z,1.90
2019-05-13T02:41:07.651Z,1.90
2019-05-13T02:42:07.653Z,1.70
2019-05-13T02:43:07.629Z,1.80
2019-05-13T02:44:07.622Z,1.70
2019-05-13T02:45:07.607Z,1.70
2019-05-13T02:46:07.609Z,1.70
2019-05-13T02:47:07.597Z,1.90
2019-05-13T02:48:07.574Z,1.50
2019-05-13T02:49:07.566Z,1.80
2019-05-13T02:50:07.555Z,1.70
2019-05-13T02:51:07.552Z,1.60
2019-05-13T02:52:07.544Z,2.20
2019-05-13T02:53:07.523Z,1.80
2019-05-13T02:54:07.512Z,1.70
2019-05-13T02:55:07.497Z,1.90
2019-05-13T02:56:07.494Z,2.00
2019-05-13T02:57:07.510Z,1.60
2019-05-13T02:58:07.470Z,1.90
2019-05-13T02:59:07.454Z,1.90
2019-05-13T03:00:07.443Z,1.50
2019-05-13T03:01:07.459Z,1.80
2019-05-13T03:02:07.434Z,1.80
2019-05-13T03:03:07.421Z,2.20
2019-05-13T03:04:07.401Z,1.30
2019-05-13T03:05:07.389Z,1.90
2019-05-13T03:06:07.383Z,1.50
2019-05-13T03:07:07.372Z,1.70
2019-05-13T03:08:07.470Z,1.80
2019-05-13T03:09:07.343Z,2.10
2019-05-13T03:10:07.334Z,1.70
2019-05-13T03:11:07.329Z,1.80
2019-05-13T03:12:07.314Z,2.10
2019-05-13T03:13:07.309Z,2.00
2019-05-13T03:14:07.301Z,1.70
2019-05-13T03:15:07.304Z,1.80
2019-05-13T03:16:07.277Z,2.00
2019-05-13T03:17:07.267Z,1.70
2019-05-13T03:18:07.260Z,2.00
2019-05-13T03:19:07.237Z,2.00
2019-05-13T03:20:11.630Z,2.00
2019-05-13T03:21:08.214Z,2.00
2019-05-13T03:22:07.205Z,1.80
2019-05-13T03:23:07.231Z,1.70
2019-05-13T03:24:07.189Z,1.70
2019-05-13T03:25:07.176Z,1.90
2019-05-13T03:26:07.171Z,1.60
2019-05-13T03:27:07.151Z,1.70
2019-05-13T03:28:07.141Z,2.20
2019-05-13T03:29:07.134Z,1.70
2019-05-13T03:30:07.115Z,1.50
2019-05-13T03:31:08.034Z,1.80
2019-05-13T03:32:07.831Z,1.70
2019-05-13T03:33:10.830Z,1.90
2019-05-13T03:34:08.133Z,1.70
2019-05-13T03:35:08.694Z,1.90
2019-05-13T03:36:08.337Z,1.60
2019-05-13T03:37:08.164Z,1.50
2019-05-13T03:38:07.078Z,1.70
2019-05-13T03:39:14.484Z,1.80
2019-05-13T03:40:08.005Z,1.90
2019-05-13T03:41:07.001Z,1.80
2019-05-13T03:42:06.997Z,1.80
2019-05-13T03:43:06.997Z,1.70
2019-05-13T03:44:07.018Z,1.70
2019-05-13T03:45:06.953Z,1.80
2019-05-13T03:46:06.945Z,2.00
2019-05-13T03:47:06.930Z,2.30
2019-05-13T03:48:06.943Z,2.40
2019-05-13T03:49:06.908Z,2.00
2019-05-13T03:50:06.900Z,2.20
2019-05-13T03:51:06.920Z,1.90
2019-05-13T03:52:06.881Z,2.10
2019-05-13T03:53:06.897Z,1.70
2019-05-13T03:54:06.860Z,2.20
2019-05-13T03:55:06.858Z,2.00
2019-05-13T03:56:06.837Z,1.80
2019-05-13T03:57:06.831Z,1.80
2019-05-13T03:58:06.824Z,2.00
2019-05-13T03:59:06.810Z,1.70
2019-05-13T04:00:06.793Z,2.00
2019-05-13T04:01:06.782Z,2.20
2019-05-13T04:02:06.772Z,1.70
2019-05-13T04:03:06.759Z,1.80
2019-05-13T04:04:06.763Z,2.50
2019-05-13T04:05:06.736Z,1.80
2019-05-13T04:06:06.725Z,1.90
2019-05-13T04:07:06.717Z,2.40
2019-05-13T04:08:06.710Z,1.90
2019-05-13T04:09:22.517Z,1.80
2019-05-13T04:10:07.677Z,1.90
2019-05-13T04:11:06.709Z,2.00
2019-05-13T04:12:06.660Z,1.90
2019-05-13T04:13:07.132Z,1.60
2019-05-13T04:14:06.647Z,2.20
2019-05-13T04:15:06.677Z,1.80
2019-05-13T04:16:06.623Z,2.10
2019-05-13T04:17:06.613Z,2.00
2019-05-13T04:18:06.597Z,2.20
2019-05-13T04:19:06.594Z,2.50
2019-05-13T04:20:06.573Z,1.60
2019-05-13T04:21:06.576Z,1.80
2019-05-13T04:22:06.556Z,1.80
2019-05-13T04:23:06.542Z,2.10
2019-05-13T04:24:06.568Z,1.90
2019-05-13T04:25:06.541Z,1.80
2019-05-13T04:26:06.512Z,2.00
2019-05-13T04:27:06.588Z,2.10
2019-05-13T04:28:06.491Z,1.90
2019-05-13T04:29:06.480Z,1.60
2019-05-13T04:30:06.464Z,1.90
2019-05-13T04:31:06.458Z,1.70
2019-05-13T04:32:06.438Z,2.10
2019-05-13T04:33:06.427Z,2.10
2019-05-13T04:34:06.510Z,2.20
2019-05-13T04:35:06.423Z,1.50
2019-05-13T04:36:06.440Z,2.00
2019-05-13T04:37:06.386Z,1.70
2019-05-13T04:38:09.202Z,1.90
2019-05-13T04:39:07.370Z,2.10
2019-05-13T04:40:06.355Z,2.00
2019-05-13T04:41:06.375Z,2.10
2019-05-13T04:42:06.337Z,2.00
2019-05-13T04:43:06.325Z,1.90
2019-05-13T04:44:06.313Z,2.00
2019-05-13T04:45:06.298Z,2.40
2019-05-13T04:46:06.297Z,2.00
2019-05-13T04:47:06.281Z,2.30
2019-05-13T04:48:06.269Z,2.00
2019-05-13T04:49:06.599Z,2.00
2019-05-13T04:50:06.248Z,2.20
2019-05-13T04:51:06.231Z,2.10
2019-05-13T04:52:06.222Z,1.90
2019-05-13T04:53:06.214Z,2.10
2019-05-13T04:54:06.201Z,2.20
2019-05-13T04:55:06.202Z,2.10
2019-05-13T04:56:06.184Z,1.90
2019-05-13T04:57:06.167Z,2.10
2019-05-13T04:58:06.179Z,2.10
2019-05-13T04:59:06.142Z,1.90
2019-05-13T05:00:06.145Z,2.00
2019-05-13T05:01:09.140Z,2.10
2019-05-13T05:02:06.120Z,2.20
2019-05-13T05:03:06.153Z,2.30
2019-05-13T05:04:11.739Z,2.00
2019-05-13T05:05:07.100Z,2.10
2019-05-13T05:06:06.075Z,2.10
2019-05-13T05:07:06.065Z,1.90
2019-05-13T05:08:06.052Z,1.90
2019-05-13T05:09:06.041Z,2.00
2019-05-13T05:10:23.381Z,2.10
2019-05-13T05:11:07.023Z,2.00
2019-05-13T05:12:06.006Z,1.70
2019-05-13T05:13:06.003Z,2.00
2019-05-13T05:14:05.986Z,1.90
2019-05-13T05:15:05.975Z,2.10
2019-05-13T05:16:05.961Z,2.00
2019-05-13T05:17:05.972Z,2.40
2019-05-13T05:18:05.942Z,2.00
2019-05-13T05:19:05.934Z,2.30
2019-05-13T05:20:05.925Z,2.00
2019-05-13T05:21:05.904Z,2.00
2019-05-13T05:22:05.900Z,2.00
2019-05-13T05:23:05.891Z,1.50
2019-05-13T05:24:05.871Z,1.90
2019-05-13T05:25:05.870Z,1.70
2019-05-13T05:26:05.863Z,2.10
2019-05-13T05:27:05.849Z,2.30
2019-05-13T05:28:05.835Z,1.90
2019-05-13T05:29:05.823Z,2.10
2019-05-13T05:30:05.816Z,2.30
2019-05-13T05:31:05.799Z,2.50
2019-05-13T05:32:05.791Z,1.80
2019-05-13T05:33:05.781Z,2.00
2019-05-13T05:34:06.793Z,1.80
2019-05-13T05:35:05.777Z,2.00
2019-05-13T05:36:05.751Z,1.80
2019-05-13T05:37:05.738Z,1.70
2019-05-13T05:38:05.723Z,1.70
2019-05-13T05:39:05.714Z,2.40
2019-05-13T05:40:05.714Z,2.00
2019-05-13T05:41:05.693Z,2.00
2019-05-13T05:42:05.694Z,2.00
2019-05-13T05:43:05.670Z,1.60
2019-05-13T05:44:05.663Z,1.90
2019-05-13T05:45:05.665Z,2.00
2019-05-13T05:46:05.724Z,2.10
2019-05-13T05:47:05.628Z,1.80
2019-05-13T05:48:05.618Z,2.30
2019-05-13T05:49:05.608Z,2.00
2019-05-13T05:50:05.603Z,1.70
2019-05-13T05:51:05.594Z,1.90
2019-05-13T05:52:05.585Z,1.90
2019-05-13T05:53:05.572Z,2.40
2019-05-13T05:54:05.553Z,2.10
2019-05-13T05:55:05.549Z,2.10
2019-05-13T05:56:05.534Z,2.10
2019-05-13T05:57:05.522Z,1.90
2019-05-13T05:58:05.514Z,2.10
2019-05-13T05:59:05.500Z,1.90
2019-05-13T06:00:05.521Z,1.50
2019-05-13T06:01:05.474Z,1.90
2019-05-13T06:02:05.477Z,1.90
2019-05-13T06:03:05.461Z,1.60
2019-05-13T06:04:05.450Z,1.90
2019-05-13T06:05:05.437Z,1.90
2019-05-13T06:06:05.429Z,2.10
2019-05-13T06:07:05.433Z,1.90
2019-05-13T06:08:05.400Z,2.10
2019-05-13T06:09:05.394Z,2.00
2019-05-13T06:10:05.388Z,2.00
2019-05-13T06:11:05.400Z,1.80
2019-05-13T06:12:05.389Z,1.80
2019-05-13T06:13:05.353Z,1.70
2019-05-13T06:14:05.348Z,1.70
2019-05-13T06:15:05.337Z,1.80
2019-05-13T06:16:05.326Z,2.00
2019-05-13T06:17:05.308Z,2.00
2019-05-13T06:18:05.299Z,1.90
2019-05-13T06:19:05.299Z,2.10
2019-05-13T06:20:05.348Z,2.00
2019-05-13T06:21:05.266Z,1.90
2019-05-13T06:22:05.254Z,1.70
2019-05-13T06:23:05.244Z,1.90
2019-05-13T06:24:05.238Z,1.80
2019-05-13T06:25:05.226Z,2.90
2019-05-13T06:26:05.222Z,2.20
2019-05-13T06:27:05.201Z,2.00
2019-05-13T06:28:05.191Z,1.80
2019-05-13T06:29:05.243Z,1.90
2019-05-13T06:30:05.165Z,2.10
2019-05-13T06:31:05.160Z,2.40
2019-05-13T06:32:17.695Z,2.20
2019-05-13T06:33:06.138Z,2.00
2019-05-13T06:34:05.125Z,2.20
2019-05-13T06:35:05.117Z,2.00
2019-05-13T06:36:05.138Z,1.90
2019-05-13T06:37:05.096Z,1.80
2019-05-13T06:38:05.079Z,1.90
2019-05-13T06:39:05.126Z,1.90
2019-05-13T06:40:05.058Z,2.40
2019-05-13T06:41:09.266Z,2.20
2019-05-13T06:42:06.039Z,2.00
2019-05-13T06:43:05.036Z,2.10
2019-05-13T06:44:05.042Z,2.30
2019-05-13T06:45:05.009Z,1.70
2019-05-13T06:46:05.004Z,2.70
2019-05-13T06:47:04.989Z,1.70
2019-05-13T06:48:04.981Z,2.10
2019-05-13T06:49:04.963Z,1.90
2019-05-13T06:50:04.958Z,1.90
2019-05-13T06:51:04.951Z,2.00
2019-05-13T06:52:04.930Z,2.10
2019-05-13T06:53:08.273Z,1.80
2019-05-13T06:54:04.917Z,1.60
2019-05-13T06:55:04.903Z,1.60
2019-05-13T06:56:04.930Z,1.40
2019-05-13T06:57:06.187Z,1.50
2019-05-13T06:58:04.869Z,1.90
2019-05-13T06:59:04.867Z,1.60
2019-05-13T07:00:04.865Z,1.50
2019-05-13T07:01:04.878Z,1.80
2019-05-13T07:02:04.826Z,1.90
2019-05-13T07:03:04.838Z,1.50
2019-05-13T07:04:04.813Z,1.80
2019-05-13T07:05:04.848Z,1.60
2019-05-13T07:06:04.782Z,2.10
2019-05-13T07:07:13.163Z,1.70
2019-05-13T07:08:05.772Z,1.70
2019-05-13T07:09:04.747Z,1.70
2019-05-13T07:10:04.742Z,1.80
2019-05-13T07:11:17.813Z,1.50
2019-05-13T07:12:05.718Z,1.80
2019-05-13T07:13:04.715Z,1.50
2019-05-13T07:14:04.726Z,1.60
2019-05-13T07:15:04.687Z,1.60
2019-05-13T07:16:04.677Z,1.80
2019-05-13T07:17:04.670Z,1.90
2019-05-13T07:18:04.651Z,1.80
2019-05-13T07:19:04.706Z,1.90
2019-05-13T07:20:04.633Z,1.60
2019-05-13T07:21:04.620Z,2.00
2019-05-13T07:22:04.668Z,1.30
2019-05-13T07:23:04.596Z,1.90
2019-05-13T07:24:04.589Z,1.20
2019-05-13T07:25:04.578Z,1.60
2019-05-13T07:26:04.565Z,1.60
2019-05-13T07:27:04.568Z,1.50
2019-05-13T07:28:04.620Z,2.10
2019-05-13T07:29:05.140Z,1.60
2019-05-13T07:30:04.527Z,1.70
2019-05-13T07:31:04.520Z,2.30
2019-05-13T07:32:04.513Z,1.30
2019-05-13T07:33:04.489Z,1.40
2019-05-13T07:34:04.485Z,1.90
2019-05-13T07:35:04.614Z,1.50
2019-05-13T07:36:04.475Z,1.60
2019-05-13T07:37:04.461Z,1.60
2019-05-13T07:38:04.431Z,1.80
2019-05-13T07:39:04.424Z,1.60
2019-05-13T07:40:04.412Z,1.60
2019-05-13T07:41:04.403Z,2.40
2019-05-13T07:42:05.798Z,1.30
2019-05-13T07:43:04.380Z,1.70
2019-05-13T07:44:04.366Z,1.90
2019-05-13T07:45:04.360Z,1.90
2019-05-13T07:46:04.344Z,1.80
2019-05-13T07:47:04.345Z,1.60
2019-05-13T07:48:19.157Z,1.50
2019-05-13T07:49:05.384Z,1.70
2019-05-13T07:50:04.299Z,1.50
2019-05-13T07:51:04.985Z,1.30
2019-05-13T07:52:04.291Z,1.60
2019-05-13T07:53:04.268Z,1.60
2019-05-13T07:54:04.259Z,1.60
2019-05-13T07:55:04.243Z,1.70
2019-05-13T07:56:04.237Z,3.60
2019-05-13T07:57:04.240Z,2.10
2019-05-13T07:58:04.225Z,2.10
2019-05-13T07:59:04.207Z,2.40
2019-05-13T08:00:04.197Z,2.00
2019-05-13T08:01:04.181Z,1.30
2019-05-13T08:02:04.393Z,1.50
2019-05-13T08:03:04.157Z,1.50
2019-05-13T08:04:04.152Z,1.70
2019-05-13T08:05:04.137Z,1.60
2019-05-13T08:06:04.132Z,1.70
2019-05-13T08:07:04.138Z,2.00
2019-05-13T08:08:04.107Z,1.60
2019-05-13T08:09:04.100Z,1.60
2019-05-13T08:10:04.086Z,1.70
2019-05-13T08:11:04.069Z,1.50
2019-05-13T08:12:09.629Z,1.50
2019-05-13T08:13:05.051Z,1.00
2019-05-13T08:14:04.043Z,1.50
2019-05-13T08:15:04.034Z,1.30
2019-05-13T08:16:04.205Z,1.50
2019-05-13T08:17:04.006Z,1.10
2019-05-13T08:18:03.995Z,1.50
2019-05-13T08:19:03.983Z,2.10
2019-05-13T08:20:03.978Z,2.50
2019-05-13T08:21:03.960Z,2.10
2019-05-13T08:22:03.953Z,1.30
2019-05-13T08:23:03.942Z,1.30
2019-05-13T08:24:03.925Z,2.50
2019-05-13T08:25:03.914Z,1.30
2019-05-13T08:26:03.910Z,1.20
2019-05-13T08:27:03.898Z,1.30
2019-05-13T08:28:03.888Z,1.60
2019-05-13T08:29:05.921Z,1.90
2019-05-13T08:30:03.866Z,1.20
2019-05-13T08:31:03.855Z,1.70
2019-05-13T08:32:03.857Z,0.90
2019-05-13T08:33:03.856Z,1.20
2019-05-13T08:34:03.821Z,0.80
2019-05-13T08:35:08.950Z,1.10
2019-05-13T08:36:04.803Z,1.00
2019-05-13T08:37:03.793Z,1.00
2019-05-13T08:38:03.780Z,1.10
2019-05-13T08:39:03.766Z,1.00
2019-05-13T08:40:03.760Z,1.10
2019-05-13T08:41:03.748Z,0.90
2019-05-13T08:42:15.022Z,1.10
2019-05-13T08:43:06.785Z,1.20
2019-05-13T08:44:03.719Z,1.10
2019-05-13T08:45:03.705Z,0.90
2019-05-13T08:46:03.689Z,1.20
2019-05-13T08:47:03.718Z,1.00
2019-05-13T08:48:03.670Z,1.10
2019-05-13T08:49:04.040Z,1.00
2019-05-13T08:50:04.586Z,1.00
2019-05-13T08:51:03.658Z,1.20
2019-05-13T08:52:03.633Z,1.20
2019-05-13T08:53:03.630Z,1.00
2019-05-13T08:54:03.603Z,0.70
2019-05-13T08:55:03.593Z,1.10
2019-05-13T08:56:03.580Z,1.20
2019-05-13T08:57:03.568Z,1.20
2019-05-13T08:58:03.564Z,1.20
2019-05-13T08:59:03.553Z,1.10
2019-05-13T09:00:05.350Z,1.10
2019-05-13T09:01:03.565Z,1.20
2019-05-13T09:02:03.685Z,1.60
2019-05-13T09:03:06.188Z,1.30
2019-05-13T09:04:03.498Z,1.00
2019-05-13T09:05:03.548Z,1.40
2019-05-13T09:06:03.520Z,1.40
2019-05-13T09:07:03.465Z,1.30
2019-05-13T09:08:03.461Z,1.50
2019-05-13T09:09:03.438Z,1.10
2019-05-13T09:10:03.435Z,1.00
2019-05-13T09:11:03.416Z,1.10
2019-05-13T09:12:03.410Z,1.00
2019-05-13T09:13:03.399Z,1.50
2019-05-13T09:14:03.397Z,1.20
2019-05-13T09:15:03.661Z,0.90
2019-05-13T09:16:03.363Z,1.00
2019-05-13T09:17:03.357Z,0.90
2019-05-13T09:18:03.443Z,0.90
2019-05-13T09:19:03.922Z,1.00
2019-05-13T09:20:03.323Z,0.80
2019-05-13T09:21:03.311Z,1.00
2019-05-13T09:22:03.593Z,0.70
2019-05-13T09:23:03.342Z,0.80
2019-05-13T09:24:03.287Z,0.90
2019-05-13T09:25:03.267Z,1.00
2019-05-13T09:26:03.260Z,1.60
2019-05-13T09:27:03.245Z,0.70
2019-05-13T09:28:03.236Z,0.80
2019-05-13T09:29:03.231Z,0.70
2019-05-13T09:30:03.235Z,1.10
2019-05-13T09:31:03.209Z,1.00
2019-05-13T09:32:04.010Z,0.80
2019-05-13T09:33:03.184Z,0.90
2019-05-13T09:34:03.185Z,1.40
2019-05-13T09:35:03.283Z,1.00
2019-05-13T09:36:03.162Z,1.30
2019-05-13T09:37:03.314Z,1.10
2019-05-13T09:38:03.458Z,1.10
2019-05-13T09:39:03.120Z,1.20
2019-05-13T09:40:03.115Z,1.10
2019-05-13T09:41:03.096Z,1.40
2019-05-13T09:42:03.218Z,1.00
2019-05-13T09:43:03.074Z,1.10
2019-05-13T09:44:03.069Z,0.90
2019-05-13T09:45:03.060Z,1.10
2019-05-13T09:46:03.045Z,1.00
2019-05-13T09:47:03.106Z,0.90
2019-05-13T09:48:03.043Z,1.10
2019-05-13T09:49:14.836Z,0.80
2019-05-13T09:50:04.717Z,0.80
2019-05-13T09:51:02.994Z,0.90
2019-05-13T09:52:02.982Z,0.90
2019-05-13T09:53:03.020Z,0.80
2019-05-13T09:54:02.966Z,0.90
2019-05-13T09:55:03.266Z,0.80
2019-05-13T09:56:02.953Z,0.60
2019-05-13T09:57:02.941Z,1.10
2019-05-13T09:58:02.915Z,0.80
2019-05-13T09:59:02.929Z,1.50
2019-05-13T10:00:02.893Z,1.20
2019-05-13T10:01:02.887Z,0.70
2019-05-13T10:02:03.504Z,0.90
2019-05-13T10:03:02.946Z,0.60
2019-05-13T10:04:03.323Z,0.70
2019-05-13T10:05:02.842Z,0.80
2019-05-13T10:06:02.937Z,0.60
2019-05-13T10:07:02.929Z,1.10
2019-05-13T10:08:02.803Z,0.80
2019-05-13T10:09:02.817Z,0.80
2019-05-13T10:10:02.783Z,0.90
2019-05-13T10:11:02.776Z,0.80
2019-05-13T10:13:12.128Z,0.70
2019-05-13T10:14:03.746Z,0.90
2019-05-13T10:15:02.755Z,0.70
2019-05-13T10:16:02.722Z,0.90
2019-05-13T10:17:06.081Z,0.70
2019-05-13T10:18:02.753Z,0.90
2019-05-13T10:19:02.854Z,0.80
2019-05-13T10:20:02.722Z,0.70
2019-05-13T10:21:02.673Z,0.70
2019-05-13T10:22:02.656Z,1.00
2019-05-13T10:23:02.642Z,0.80
2019-05-13T10:24:02.632Z,1.00
2019-05-13T10:25:02.793Z,0.90
2019-05-13T10:26:03.468Z,0.90
2019-05-13T10:27:02.810Z,0.90
2019-05-13T10:28:02.584Z,1.00
2019-05-13T10:29:02.655Z,1.00
2019-05-13T10:30:02.573Z,1.10
2019-05-13T10:31:02.787Z,1.20
2019-05-13T10:32:03.589Z,1.20
2019-05-13T10:33:02.894Z,1.30
2019-05-13T10:34:02.712Z,0.70
2019-05-13T10:35:03.532Z,0.90
2019-05-13T10:36:03.769Z,0.70
2019-05-13T10:37:02.768Z,2.80
2019-05-13T10:38:04.363Z,1.80
2019-05-13T10:39:02.464Z,1.00
2019-05-13T10:40:02.733Z,1.00
2019-05-13T10:41:03.432Z,1.00
2019-05-13T10:42:03.664Z,2.10
2019-05-13T10:43:02.421Z,1.10
2019-05-13T10:44:03.202Z,1.00
2019-05-13T10:45:02.805Z,1.60
2019-05-13T10:46:02.955Z,0.90
2019-05-13T10:47:02.700Z,1.00
2019-05-13T10:48:02.933Z,0.90
2019-05-13T10:49:02.357Z,0.70
2019-05-13T10:50:02.997Z,0.80
2019-05-13T10:51:02.542Z,0.60
2019-05-13T10:52:03.097Z,0.60
2019-05-13T10:53:02.812Z,0.70
2019-05-13T10:54:02.300Z,1.10
2019-05-13T10:55:02.300Z,0.60
2019-05-13T10:56:03.346Z,0.60
2019-05-13T10:57:04.044Z,0.60
2019-05-13T10:58:02.543Z,0.70
2019-05-13T10:59:03.112Z,1.10
2019-05-13T11:00:03.353Z,0.60
2019-05-13T11:01:03.067Z,0.60
2019-05-13T11:02:02.573Z,0.60
2019-05-13T11:03:02.254Z,0.40
2019-05-13T11:04:02.796Z,0.70
2019-05-13T11:05:03.156Z,0.60
2019-05-13T11:06:02.183Z,0.60
2019-05-13T11:07:03.029Z,0.60
2019-05-13T11:08:02.229Z,0.60
2019-05-13T11:09:02.337Z,0.80
2019-05-13T11:10:02.746Z,0.60
2019-05-13T11:11:02.265Z,0.70
2019-05-13T11:12:02.354Z,0.60
2019-05-13T11:13:06.141Z,0.70
2019-05-13T11:14:10.049Z,0.60
2019-05-13T11:15:03.086Z,0.60
2019-05-13T11:16:02.561Z,0.70
2019-05-13T11:17:02.064Z,0.90
2019-05-13T11:18:03.082Z,0.70
2019-05-13T11:19:02.883Z,0.50
2019-05-13T11:20:03.396Z,0.70
2019-05-13T11:21:02.417Z,0.80
2019-05-13T11:22:03.028Z,1.00
2019-05-13T11:23:02.661Z,1.00
2019-05-13T11:24:03.301Z,0.70
2019-05-13T11:25:02.668Z,0.70
2019-05-13T11:26:03.182Z,0.50
2019-05-13T11:27:02.730Z,0.60
2019-05-13T11:28:01.947Z,0.80
2019-05-13T11:29:02.824Z,0.60
2019-05-13T11:30:05.613Z,0.60
2019-05-13T11:31:03.587Z,0.50
2019-05-13T11:32:02.744Z,0.80
2019-05-13T11:33:02.395Z,0.70
2019-05-13T11:34:02.214Z,0.60
2019-05-13T11:35:02.195Z,0.70
2019-05-13T11:36:03.224Z,0.60
2019-05-13T11:37:03.620Z,0.70
2019-05-13T11:38:01.886Z,0.60
2019-05-13T11:39:02.941Z,0.80
2019-05-13T11:40:02.791Z,0.60
2019-05-13T11:41:02.392Z,0.60
2019-05-13T11:42:02.509Z,0.80
2019-05-13T11:43:01.940Z,0.80
2019-05-13T11:44:12.455Z,1.20
2019-05-13T11:45:02.766Z,0.90
2019-05-13T11:46:02.389Z,0.60
2019-05-13T11:47:02.887Z,0.90
2019-05-13T11:48:02.462Z,0.50
2019-05-13T11:49:02.643Z,0.70
2019-05-13T11:50:02.580Z,0.60
2019-05-13T11:52:03.267Z,0.70
2019-05-13T11:53:05.980Z,0.70
2019-05-13T11:54:02.775Z,0.80
2019-05-13T11:55:02.572Z,0.50
2019-05-13T11:56:03.690Z,0.40
2019-05-13T11:57:06.195Z,1.20
2019-05-13T11:58:03.068Z,1.60
2019-05-13T11:59:04.407Z,1.00
2019-05-13T12:01:03.184Z,0.70
2019-05-13T12:03:04.244Z,0.50
2019-05-13T12:04:02.742Z,0.60
2019-05-13T12:05:03.759Z,0.60
2019-05-13T12:06:02.395Z,0.70
2019-05-13T12:07:03.428Z,0.70
2019-05-13T12:08:01.522Z,0.60
2019-05-13T12:09:03.134Z,0.80
2019-05-13T12:10:02.741Z,0.50
2019-05-13T12:11:04.182Z,0.50
2019-05-13T12:12:03.352Z,0.70
2019-05-13T12:13:01.468Z,0.70
2019-05-13T12:14:01.473Z,0.80
2019-05-13T12:15:27.133Z,0.80
2019-05-13T12:16:03.706Z,0.80
2019-05-13T12:17:02.257Z,0.90
2019-05-13T12:18:02.879Z,1.00
2019-05-13T12:19:03.433Z,0.80
2019-05-13T12:20:03.099Z,0.60
2019-05-13T12:21:03.241Z,0.50
2019-05-13T12:22:02.634Z,0.80
2019-05-13T12:23:03.453Z,0.80
2019-05-13T12:24:09.469Z,1.00
2019-05-13T12:25:02.500Z,1.00
2019-05-13T12:26:04.348Z,1.30
2019-05-13T12:27:03.667Z,2.30
2019-05-13T12:28:03.396Z,3.00
2019-05-13T12:29:02.805Z,1.60
2019-05-13T12:30:03.122Z,1.30
2019-05-13T12:31:03.314Z,1.20
2019-05-13T12:32:03.312Z,0.90
2019-05-13T12:33:03.141Z,0.90
2019-05-13T12:34:03.503Z,1.00
2019-05-13T12:35:03.581Z,1.00
2019-05-13T12:36:02.060Z,1.30
2019-05-13T12:37:03.230Z,1.80
2019-05-13T12:38:01.225Z,1.10
2019-05-13T12:39:01.197Z,1.20
2019-05-13T12:40:03.149Z,1.30
2019-05-13T12:41:05.046Z,1.20
2019-05-13T12:42:03.369Z,1.00
2019-05-13T12:43:02.115Z,0.90
2019-05-13T12:44:01.818Z,0.90
2019-05-13T12:45:09.336Z,0.90
2019-05-13T12:46:02.597Z,1.00
2019-05-13T12:48:03.298Z,1.20
2019-05-13T12:49:03.831Z,1.50
2019-05-13T12:50:03.201Z,1.10
2019-05-13T12:51:03.074Z,1.40
2019-05-13T12:52:04.431Z,1.10
2019-05-13T12:53:02.699Z,1.70
2019-05-13T12:54:03.735Z,0.90
2019-05-13T12:55:03.367Z,1.50
2019-05-13T12:56:03.228Z,1.30
2019-05-13T12:57:03.568Z,1.60
2019-05-13T12:58:02.689Z,1.40
2019-05-13T12:59:02.941Z,1.30
2019-05-13T13:00:02.431Z,1.50
2019-05-13T13:01:01.547Z,1.50
2019-05-13T13:02:03.248Z,1.20
2019-05-13T13:03:02.120Z,0.90
2019-05-13T13:04:02.219Z,1.30
2019-05-13T13:06:25.792Z,0.90
2019-05-13T13:07:01.903Z,1.00
2019-05-13T13:08:18.435Z,1.20
2019-05-13T13:09:01.858Z,1.40
2019-05-13T13:10:00.852Z,1.00
2019-05-13T13:11:00.906Z,1.20
2019-05-13T13:12:00.860Z,1.30
2019-05-13T13:13:02.258Z,1.40
2019-05-13T13:14:05.330Z,1.20
2019-05-13T13:15:20.302Z,1.30
2019-05-13T13:16:03.517Z,1.70
2019-05-13T13:17:04.141Z,1.20
2019-05-13T13:18:02.565Z,1.70
2019-05-13T13:19:02.429Z,1.40
2019-05-13T13:20:08.755Z,1.10
2019-05-13T13:21:06.841Z,1.50
2019-05-13T13:23:04.298Z,3.90
2019-05-13T13:24:04.431Z,1.90
2019-05-13T13:25:05.026Z,1.80